x

Sheboygan, Wi (sgnw3) Weather Station

5:00am - Fri 15th Dec 2017 All times are CST. -6 hours from GMT.

  • Wind
    14mph, 17mph gusts
  • Air Temp 22°f
  • Sea Pressure 1011.4mb
  • Sheboygan, Wi
  • Sheboygan, Wi

More Historic Weather Station data

Upgrade to MSW Pro to gain access to the past 30 days of data for over 8000 Wavebouys and Weather Stations around the globe.

Join

Comparision Forecast

View Surf forecast
   
Fri 12/15 5:00am 14 17 mph 1011.4mb 22f
4:00am 9 10 mph 1011.9mb 23f
3:00am 9 13 mph 1012.5mb 23f
2:00am 11 13 mph 1012.7mb 22f
1:00am 13 15 mph 1013.5mb 22f
12:00am 11 14 mph 1014.6mb 22f
Thu 12/14 11:00pm 14 15 mph 1015.8mb 22f
10:00pm 11 14 mph 1016.5mb 21f
9:00pm 11 13 mph 1017.3mb 21f
8:00pm 9 10 mph 1017.7mb 20f
7:00pm 10 13 mph 1018.3mb 19f
6:00pm 9 11 mph 1018.1mb 20f
5:00pm 7 9 mph 1018.1mb 21f
4:00pm 8 9 mph 1017.8mb 22f
3:00pm 9 11 mph 1017.6mb 22f
2:00pm 8 11 mph 1018.1mb 21f
1:00pm 7 9 mph 1018.2mb 20f
12:00pm 9 11 mph 1018.4mb 19f
11:00am 7 8 mph 1018.6mb 17f
10:00am 9 10 mph 1019.2mb 15f
9:00am 9 10 mph 1018.9mb 13f
8:00am 11 14 mph 1017.9mb 15f
7:00am 13 16 mph 1017.2mb 13f
6:00am 10 13 mph 1016.7mb 13f
5:00am 14 18 mph 1015.7mb 14f
4:00am 14 16 mph 1015mb 14f
3:00am 14 16 mph 1014.4mb 13f
2:00am 14 17 mph 1013.5mb 15f
1:00am 17 23 mph 1012mb 16f
12:00am 28 32 mph 1011mb 20f
Wed 12/13 11:00pm 28 31 mph 1010.3mb 21f
10:00pm 29 31 mph 1008.4mb 22f
9:00pm 32 37 mph 1007.1mb 23f
8:00pm 33 37 mph 1004.3mb 27f
7:00pm 33 37 mph 1002.3mb 27f
6:00pm 30 33 mph 1000.6mb 26f
5:00pm 28 31 mph 998.4mb 27f
4:00pm 26 28 mph 995.9mb 26f
3:00pm 32 37 mph 993.5mb 27f
2:00pm 7 7 mph 993.1mb 29f
1:00pm 11 13 mph 992.9mb 29f
12:00pm 17 21 mph 993.7mb 31f
11:00am 28 30 mph 995mb 34f
10:00am 25 30 mph 997.1mb 33f
9:00am 26 30 mph 998.2mb 31f
8:00am 29 33 mph 999.5mb 30f
7:00am 28 31 mph 1001mb 28f
6:00am 26 31 mph 1002.8mb 28f
5:00am 23 28 mph 1004.9mb 25f
4:00am 17 21 mph 1006.8mb 21f
3:00am 9 10 mph 1009mb 17f
2:00am 9 10 mph 1010.3mb 17f
1:00am 6 8 mph 1010.9mb 17f
12:00am 6 9 mph 1012.3mb 17f
Tue 12/12 11:00pm 6 8 mph 1013.4mb 17f
10:00pm 5 6 mph 1014.4mb 16f
9:00pm 10 13 mph 1015.5mb 17f
8:00pm 9 10 mph 1015.7mb 16f
7:00pm 9 10 mph 1016.4mb 16f
6:00pm 7 8 mph 1016.6mb 17f
5:00pm 7 8 mph 1016.5mb 17f
4:00pm 13 16 mph 1016.8mb 18f
3:00pm 15 18 mph 1017mb 17f
2:00pm 18 21 mph 1016.9mb 18f
1:00pm 17 21 mph 1017.3mb 17f
12:00pm 17 20 mph 1017.8mb 17f
11:00am 24 28 mph 1018.1mb 17f
10:00am 21 26 mph 1018.8mb 17f
9:00am 17 20 mph 1018.7mb 16f
8:00am 21 26 mph 1018.4mb 17f
7:00am 21 25 mph 1018.3mb 16f
6:00am 24 30 mph 1018.1mb 17f
5:00am 21 24 mph 1017.2mb 18f
4:00am 15 17 mph 1016.8mb 18f
3:00am 23 28 mph 1016.4mb 19f
2:00am 20 24 mph 1016mb 20f
1:00am 28 32 mph 1015.2mb 21f
12:00am 24 30 mph 1014.6mb 22f
Mon 12/11 11:00pm 25 31 mph 1013.8mb 25f
10:00pm 31 43 mph 1012.7mb 26f
9:00pm 21 25 mph 1011.3mb 30f
8:00pm 17 23 mph 1010.6mb 29f
7:00pm 15 22 mph 1010mb 29f
6:00pm 17 22 mph 1008.9mb 30f
5:00pm 9 13 mph 1008mb 31f
4:00pm 7 8 mph 1007.5mb 31f
3:00pm 8 9 mph 1007mb 32f
2:00pm 8 9 mph 1006.4mb 32f
1:00pm 11 11 mph 1007mb 31f